Auckland (NZAA)

Aerodrome — Elev 23
New Zealand
S037.00.20.413 E174.47.25.105
Loading chart...

Note: Unless otherwise advised, Runway 05L/23R is to be used as a taxiway and not for flight operations.

Current Weather

NZAA 101600Z AUTO 05004KT 9999 OVC080/// 10/09 Q1014 NOSIG

Published 24 minutes ago

Airport Activity

Loading chart...
Loading chart...

Standard ATC Positions

CallsignRadio Name / Freq / Voice Room / TypeFrequencyType
NZAA_CTR Auckland Control
123.900
nzaa_ctr
123.900
NZAA_APP Auckland Approach
124.300
nzaa_app
124.300
NZAA_TWR Auckland Tower
118.700
nzaa_twr
118.700
NZAA_GND Auckland Ground
121.900
nzaa_gnd
121.900
NZAA_DEL Auckland Delivery
128.200
nzaa_del
128.200
NZAA_ATIS Auckland ATIS
127.800
nzaa_atis
127.800
UNICOM NZZC UNICOM
122.800
unicom_nzzc
122.800

Event ATC Positions

This airport has additional control positions that are designated for use only during major events.
These non-standard positions must not be staffed unless specifically activated by the VATNZ Airspace Director as part of an official VATNZ event.
At all other times, controllers should use the designated Standard ATC Positions.

CallsignRadio Name / Freq / Voice Room / TypeFrequencyType
NZAA-R_CTR Auckland Control
126.000
nzaa-r_ctr
126.000
NZAA-F_APP Auckland Approach
129.600
nzaa-f_app
129.600
NZAA_DEP Auckland Approach
118.000
nzaa_dep
118.000

Charts